Wetterdaten: Woche 11.07.11 - 17.07.11 (KW28)
Datum Zeit Temperatur Luftfeuchte Luftdruck Niederschlag Windrichtung Sonnenschein Solar Wind
11.07.2011 00:00 16,7 C 95 % 1015,6 hPa 0,0 l/m W-SW 0,00 h 0 W/m 11,6 km/h (2 Bft)
11.07.2011 01:00 16,1 C 97 % 1016,1 hPa 0,0 l/m N 0,00 h 0 W/m 3,5 km/h (1 Bft)
11.07.2011 02:00 15,8 C 98 % 1016,6 hPa 0,0 l/m N 0,00 h 0 W/m 1,6 km/h (1 Bft)
11.07.2011 03:00 15,0 C 98 % 1016,3 hPa 0,0 l/m SW 0,00 h 0 W/m 3,5 km/h (1 Bft)
11.07.2011 04:00 14,6 C 98 % 1016,4 hPa 0,0 l/m N 0,00 h 0 W/m 0,4 km/h (0 Bft)
11.07.2011 05:00 13,7 C 98 % 1016,5 hPa 0,0 l/m N 0,00 h 8 W/m 0,4 km/h (0 Bft)
11.07.2011 06:00 13,5 C 99 % 1016,6 hPa 0,0 l/m N 0,33 h 61 W/m 0,0 km/h (0 Bft)
11.07.2011 07:00 14,7 C 98 % 1016,7 hPa 0,0 l/m N 0,50 h 158 W/m 0,9 km/h (0 Bft)
11.07.2011 08:00 16,8 C 89 % 1017,1 hPa 0,0 l/m N-NO 0,67 h 274 W/m 7,6 km/h (2 Bft)
11.07.2011 09:00 17,5 C 83 % 1017,3 hPa 0,0 l/m N 0,08 h 250 W/m 7,6 km/h (2 Bft)
11.07.2011 10:00 18,1 C 79 % 1017,4 hPa 0,0 l/m N 0,17 h 296 W/m 3,7 km/h (1 Bft)
11.07.2011 11:00 20,4 C 68 % 1017,3 hPa 0,0 l/m SO 0,67 h 725 W/m 7,5 km/h (2 Bft)
11.07.2011 12:00 21,9 C 61 % 1017,0 hPa 0,0 l/m O 0,67 h 713 W/m 9,1 km/h (2 Bft)
11.07.2011 13:00 22,6 C 57 % 1016,7 hPa 0,0 l/m NO 0,83 h 808 W/m 9,1 km/h (2 Bft)
11.07.2011 14:00 24,0 C 53 % 1016,3 hPa 0,0 l/m O 0,83 h 852 W/m 11,3 km/h (2 Bft)
11.07.2011 15:00 23,7 C 53 % 1016,1 hPa 0,0 l/m N-NO 0,75 h 795 W/m 9,4 km/h (2 Bft)
11.07.2011 16:00 24,7 C 49 % 1015,9 hPa 0,0 l/m NO 1,00 h 762 W/m 13,2 km/h (3 Bft)
11.07.2011 17:00 24,9 C 48 % 1015,8 hPa 0,0 l/m O-SO 0,92 h 581 W/m 14,1 km/h (3 Bft)
11.07.2011 18:00 24,5 C 48 % 1015,6 hPa 0,0 l/m O-SO 0,92 h 399 W/m 14,5 km/h (3 Bft)
11.07.2011 19:00 23,5 C 51 % 1015,4 hPa 0,0 l/m O 1,00 h 244 W/m 14,8 km/h (3 Bft)
11.07.2011 20:00 22,0 C 57 % 1015,4 hPa 0,0 l/m O 0,33 h 48 W/m 8,3 km/h (2 Bft)
11.07.2011 21:00 19,9 C 66 % 1015,4 hPa 0,0 l/m N 0,00 h 8 W/m 2,8 km/h (1 Bft)
11.07.2011 22:00 17,4 C 78 % 1015,5 hPa 0,0 l/m N 0,00 h 0 W/m 2,0 km/h (1 Bft)
11.07.2011 23:00 16,6 C 82 % 1015,4 hPa 0,0 l/m N 0,00 h 0 W/m 1,6 km/h (1 Bft)
12.07.2011 00:00 15,9 C 86 % 1015,1 hPa 0,0 l/m N 0,00 h 0 W/m 2,3 km/h (1 Bft)
12.07.2011 01:00 15,4 C 87 % 1014,8 hPa 0,0 l/m N 0,00 h 0 W/m 4,7 km/h (1 Bft)
12.07.2011 02:00 15,1 C 88 % 1014,5 hPa 0,0 l/m N 0,00 h 0 W/m 4,4 km/h (1 Bft)
12.07.2011 03:00 14,5 C 90 % 1014,2 hPa 0,0 l/m N 0,00 h 0 W/m 3,9 km/h (1 Bft)
12.07.2011 04:00 13,9 C 92 % 1013,9 hPa 0,0 l/m N 0,00 h 0 W/m 2,1 km/h (1 Bft)
12.07.2011 05:00 13,6 C 92 % 1013,8 hPa 0,0 l/m N 0,00 h 7 W/m 3,7 km/h (1 Bft)
12.07.2011 06:00 13,8 C 92 % 1013,6 hPa 0,0 l/m N 0,08 h 49 W/m 4,3 km/h (1 Bft)
12.07.2011 07:00 15,3 C 88 % 1013,3 hPa 0,0 l/m N 1,00 h 195 W/m 6,5 km/h (2 Bft)
12.07.2011 08:00 17,5 C 82 % 1012,7 hPa 0,0 l/m NO 1,00 h 355 W/m 6,5 km/h (2 Bft)
12.07.2011 09:00 20,1 C 76 % 1012,4 hPa 0,0 l/m NO 1,00 h 516 W/m 8,8 km/h (2 Bft)
12.07.2011 10:00 22,3 C 70 % 1011,8 hPa 0,0 l/m NO 1,00 h 670 W/m 11,6 km/h (2 Bft)
12.07.2011 11:00 24,8 C 63 % 1011,5 hPa 0,0 l/m O-NO 1,00 h 791 W/m 14,2 km/h (3 Bft)
12.07.2011 12:00 26,6 C 59 % 1010,9 hPa 0,0 l/m O-NO 1,00 h 867 W/m 12,1 km/h (2 Bft)
12.07.2011 13:00 28,2 C 54 % 1010,1 hPa 0,0 l/m O-SO 1,00 h 904 W/m 11,7 km/h (2 Bft)
12.07.2011 14:00 29,3 C 50 % 1009,3 hPa 0,0 l/m O-SO 1,00 h 884 W/m 13,4 km/h (3 Bft)
12.07.2011 15:00 30,2 C 48 % 1008,6 hPa 0,0 l/m O-SO 1,00 h 812 W/m 12,9 km/h (3 Bft)
12.07.2011 16:00 30,4 C 48 % 1007,7 hPa 0,0 l/m O-SO 1,00 h 672 W/m 15,2 km/h (3 Bft)
12.07.2011 17:00 29,6 C 52 % 1006,9 hPa 0,0 l/m O-SO 0,25 h 296 W/m 15,8 km/h (3 Bft)
12.07.2011 18:00 28,2 C 60 % 1005,9 hPa 0,0 l/m O-SO 0,00 h 128 W/m 14,0 km/h (3 Bft)
12.07.2011 19:00 26,3 C 66 % 1005,8 hPa 0,0 l/m O-SO 0,00 h 20 W/m 3,6 km/h (1 Bft)
12.07.2011 20:00 24,6 C 77 % 1006,0 hPa 0,0 l/m N-NW 0,00 h 22 W/m 3,9 km/h (1 Bft)
12.07.2011 21:00 24,0 C 75 % 1006,4 hPa 0,0 l/m N-NO 0,00 h 0 W/m 8,2 km/h (2 Bft)
12.07.2011 22:00 22,4 C 83 % 1006,5 hPa 0,0 l/m N-NW 0,00 h 0 W/m 4,7 km/h (1 Bft)
12.07.2011 23:00 21,2 C 78 % 1006,9 hPa 0,0 l/m N 0,00 h 0 W/m 20,8 km/h (4 Bft)
13.07.2011 00:00 19,8 C 77 % 1006,5 hPa 0,0 l/m N-NO 0,00 h 0 W/m 9,5 km/h (2 Bft)
13.07.2011 01:00 16,9 C 84 % 1007,8 hPa 6,0 l/m W 0,00 h 0 W/m 21,9 km/h (4 Bft)
13.07.2011 02:00 14,7 C 96 % 1010,6 hPa 7,2 l/m O 0,00 h 0 W/m 9,4 km/h (2 Bft)
13.07.2011 03:00 15,1 C 97 % 1008,6 hPa 0,2 l/m S-SW 0,00 h 0 W/m 5,9 km/h (2 Bft)
13.07.2011 04:00 15,1 C 98 % 1007,5 hPa 0,0 l/m S-SW 0,00 h 0 W/m 6,8 km/h (2 Bft)
13.07.2011 05:00 15,8 C 97 % 1010,1 hPa 7,2 l/m W 0,00 h 0 W/m 13,8 km/h (3 Bft)
13.07.2011 06:00 15,8 C 98 % 1009,4 hPa 5,6 l/m SO 0,00 h 0 W/m 5,4 km/h (1 Bft)
13.07.2011 07:00 15,8 C 98 % 1008,2 hPa 0,6 l/m S-SW 0,00 h 41 W/m 10,2 km/h (2 Bft)
13.07.2011 08:00 16,4 C 98 % 1007,4 hPa 0,0 l/m S-SW 0,00 h 57 W/m 8,2 km/h (2 Bft)
13.07.2011 09:00 16,9 C 97 % 1007,3 hPa 0,0 l/m S 0,00 h 76 W/m 6,0 km/h (2 Bft)
13.07.2011 10:00 16,9 C 97 % 1006,7 hPa 0,8 l/m S-SO 0,00 h 32 W/m 8,2 km/h (2 Bft)
13.07.2011 11:00 17,1 C 96 % 1005,5 hPa 0,2 l/m S-SO 0,00 h 152 W/m 8,5 km/h (2 Bft)
13.07.2011 12:00 18,3 C 93 % 1005,3 hPa 0,0 l/m S-SO 0,00 h 126 W/m 6,0 km/h (2 Bft)
13.07.2011 13:00 19,0 C 92 % 1004,6 hPa 0,0 l/m W-SW 0,00 h 207 W/m 7,6 km/h (2 Bft)
13.07.2011 14:00 18,5 C 94 % 1005,9 hPa 1,6 l/m O-SO 0,00 h 56 W/m 12,6 km/h (3 Bft)
13.07.2011 15:00 18,3 C 97 % 1004,9 hPa 0,6 l/m SW 0,08 h 172 W/m 8,7 km/h (2 Bft)
13.07.2011 16:00 20,0 C 89 % 1005,2 hPa 0,0 l/m W-SW 0,50 h 442 W/m 16,8 km/h (3 Bft)
13.07.2011 17:00 19,0 C 90 % 1006,0 hPa 0,0 l/m W-SW 0,00 h 92 W/m 17,3 km/h (3 Bft)
13.07.2011 18:00 18,0 C 94 % 1006,7 hPa 2,4 l/m W-SW 0,00 h 26 W/m 15,4 km/h (3 Bft)
13.07.2011 19:00 16,9 C 96 % 1007,1 hPa 3,2 l/m W-SW 0,00 h 18 W/m 22,9 km/h (4 Bft)
13.07.2011 20:00 16,3 C 97 % 1008,4 hPa 4,2 l/m SW 0,00 h 6 W/m 19,2 km/h (3 Bft)
13.07.2011 21:00 15,7 C 98 % 1008,5 hPa 4,6 l/m SW 0,00 h 0 W/m 16,0 km/h (3 Bft)
13.07.2011 22:00 14,9 C 98 % 1009,1 hPa 0,0 l/m W-SW 0,00 h 0 W/m 20,1 km/h (4 Bft)
13.07.2011 23:00 14,5 C 97 % 1010,0 hPa 1,2 l/m SW 0,00 h 0 W/m 16,1 km/h (3 Bft)
14.07.2011 00:00 13,9 C 96 % 1011,5 hPa 0,2 l/m W-NW 0,00 h 0 W/m 15,2 km/h (3 Bft)
14.07.2011 01:00 13,4 C 95 % 1012,5 hPa 0,0 l/m W-NW 0,00 h 0 W/m 13,7 km/h (3 Bft)
14.07.2011 02:00 13,1 C 96 % 1013,0 hPa 0,0 l/m W-NW 0,00 h 0 W/m 7,2 km/h (2 Bft)
14.07.2011 03:00 12,8 C 96 % 1013,1 hPa 0,0 l/m W-NW 0,00 h 0 W/m 4,9 km/h (1 Bft)
14.07.2011 04:00 12,4 C 95 % 1013,5 hPa 0,0 l/m W 0,00 h 0 W/m 9,7 km/h (2 Bft)
14.07.2011 05:00 11,9 C 94 % 1013,9 hPa 0,0 l/m W 0,00 h 5 W/m 5,6 km/h (1 Bft)
14.07.2011 06:00 11,8 C 95 % 1014,3 hPa 0,0 l/m W 0,00 h 17 W/m 4,4 km/h (1 Bft)
14.07.2011 07:00 12,0 C 95 % 1014,6 hPa 0,0 l/m W 0,00 h 54 W/m 5,9 km/h (2 Bft)
14.07.2011 08:00 12,3 C 93 % 1015,1 hPa 0,0 l/m W 0,00 h 81 W/m 6,0 km/h (2 Bft)
14.07.2011 09:00 12,8 C 89 % 1015,3 hPa 0,0 l/m W 0,00 h 100 W/m 9,8 km/h (2 Bft)
14.07.2011 10:00 13,2 C 88 % 1015,7 hPa 0,0 l/m W 0,00 h 175 W/m 9,0 km/h (2 Bft)
14.07.2011 11:00 14,1 C 83 % 1015,8 hPa 0,0 l/m W-NW 0,00 h 196 W/m 12,3 km/h (3 Bft)
14.07.2011 12:00 14,8 C 78 % 1016,1 hPa 0,0 l/m W 0,00 h 271 W/m 12,8 km/h (3 Bft)
14.07.2011 13:00 16,1 C 70 % 1015,9 hPa 0,0 l/m W-SW 0,17 h 505 W/m 14,0 km/h (3 Bft)
14.07.2011 14:00 16,3 C 68 % 1015,8 hPa 0,0 l/m W 0,08 h 291 W/m 15,0 km/h (3 Bft)
14.07.2011 15:00 16,7 C 70 % 1015,7 hPa 0,0 l/m W-SW 0,25 h 419 W/m 17,2 km/h (3 Bft)
14.07.2011 16:00 16,6 C 70 % 1015,8 hPa 0,0 l/m W-SW 0,08 h 289 W/m 15,7 km/h (3 Bft)
14.07.2011 17:00 17,3 C 64 % 1016,0 hPa 0,0 l/m W-SW 0,67 h 423 W/m 15,0 km/h (3 Bft)
14.07.2011 18:00 17,1 C 63 % 1016,1 hPa 0,0 l/m W 0,50 h 275 W/m 15,8 km/h (3 Bft)
14.07.2011 19:00 16,0 C 67 % 1016,6 hPa 0,0 l/m W-SW 0,25 h 82 W/m 11,1 km/h (2 Bft)
14.07.2011 20:00 15,1 C 69 % 1017,2 hPa 0,0 l/m W 0,00 h 25 W/m 12,0 km/h (2 Bft)
14.07.2011 21:00 14,1 C 75 % 1017,8 hPa 0,0 l/m W 0,00 h 6 W/m 6,1 km/h (2 Bft)
14.07.2011 22:00 12,5 C 82 % 1018,3 hPa 0,0 l/m W 0,00 h 0 W/m 3,5 km/h (1 Bft)
14.07.2011 23:00 10,8 C 88 % 1018,6 hPa 0,0 l/m N 0,00 h 0 W/m 1,6 km/h (1 Bft)
15.07.2011 00:00 9,5 C 92 % 1018,8 hPa 0,0 l/m N 0,00 h 0 W/m 0,4 km/h (0 Bft)
15.07.2011 01:00 8,8 C 93 % 1018,9 hPa 0,0 l/m N 0,00 h 0 W/m 0,3 km/h (0 Bft)
15.07.2011 02:00 8,5 C 94 % 1019,2 hPa 0,0 l/m N 0,00 h 0 W/m 1,7 km/h (1 Bft)
15.07.2011 03:00 8,1 C 95 % 1019,3 hPa 0,0 l/m N 0,00 h 0 W/m 0,1 km/h (0 Bft)
15.07.2011 04:00 7,8 C 95 % 1019,1 hPa 0,0 l/m N 0,00 h 0 W/m 0,4 km/h (0 Bft)
15.07.2011 05:00 7,5 C 95 % 1019,0 hPa 0,0 l/m N 0,00 h 8 W/m 0,5 km/h (0 Bft)
15.07.2011 06:00 7,6 C 95 % 1019,3 hPa 0,0 l/m N 0,25 h 58 W/m 0,1 km/h (0 Bft)
15.07.2011 07:00 10,2 C 91 % 1019,6 hPa 0,0 l/m N 1,00 h 204 W/m 0,0 km/h (0 Bft)
15.07.2011 08:00 13,3 C 79 % 1019,7 hPa 0,0 l/m W 1,00 h 370 W/m 5,8 km/h (2 Bft)
15.07.2011 09:00 15,3 C 70 % 1019,7 hPa 0,0 l/m W 1,00 h 529 W/m 14,6 km/h (3 Bft)
15.07.2011 10:00 16,6 C 60 % 1019,6 hPa 0,0 l/m W 0,67 h 618 W/m 14,1 km/h (3 Bft)
15.07.2011 11:00 16,9 C 59 % 1019,5 hPa 0,0 l/m W-SW 0,33 h 455 W/m 13,0 km/h (3 Bft)
15.07.2011 12:00 17,9 C 55 % 1019,3 hPa 0,0 l/m W-SW 0,50 h 506 W/m 17,6 km/h (3 Bft)
15.07.2011 13:00 15,2 C 66 % 1019,7 hPa 0,0 l/m N-NW 0,00 h 116 W/m 15,0 km/h (3 Bft)
15.07.2011 14:00 14,9 C 70 % 1019,6 hPa 0,0 l/m NW 0,00 h 93 W/m 9,3 km/h (2 Bft)
15.07.2011 15:00 15,9 C 66 % 1019,2 hPa 0,0 l/m W-NW 0,25 h 310 W/m 6,4 km/h (2 Bft)
15.07.2011 16:00 17,4 C 59 % 1018,7 hPa 0,0 l/m W 0,33 h 368 W/m 12,0 km/h (2 Bft)
15.07.2011 17:00 17,8 C 57 % 1018,3 hPa 0,0 l/m NW 0,58 h 378 W/m 10,3 km/h (2 Bft)
15.07.2011 18:00 17,8 C 58 % 1018,1 hPa 0,0 l/m W-NW 0,42 h 242 W/m 6,1 km/h (2 Bft)
15.07.2011 19:00 16,4 C 69 % 1018,0 hPa 0,0 l/m NW 0,00 h 75 W/m 2,3 km/h (1 Bft)
15.07.2011 20:00 15,3 C 59 % 1018,3 hPa 0,0 l/m N-NW 0,08 h 46 W/m 8,0 km/h (2 Bft)
15.07.2011 21:00 12,6 C 74 % 1018,6 hPa 0,0 l/m N 0,08 h 8 W/m 1,7 km/h (1 Bft)
15.07.2011 22:00 10,6 C 83 % 1018,7 hPa 0,0 l/m N 0,00 h 0 W/m 0,5 km/h (0 Bft)
15.07.2011 23:00 9,2 C 89 % 1018,6 hPa 0,0 l/m N 0,00 h 0 W/m 0,0 km/h (0 Bft)
16.07.2011 00:00 8,4 C 91 % 1018,5 hPa 0,0 l/m N 0,00 h 0 W/m 0,0 km/h (0 Bft)
16.07.2011 01:00 7,9 C 94 % 1018,0 hPa 0,0 l/m N 0,00 h 0 W/m 0,0 km/h (0 Bft)
16.07.2011 02:00 7,4 C 95 % 1017,4 hPa 0,0 l/m N 0,00 h 0 W/m 0,0 km/h (0 Bft)
16.07.2011 03:00 6,9 C 95 % 1016,9 hPa 0,0 l/m N 0,00 h 0 W/m 0,1 km/h (0 Bft)
16.07.2011 04:00 6,5 C 95 % 1016,1 hPa 0,0 l/m N 0,00 h 0 W/m 0,0 km/h (0 Bft)
16.07.2011 05:00 5,8 C 96 % 1015,6 hPa 0,0 l/m N 0,08 h 8 W/m 0,1 km/h (0 Bft)
16.07.2011 06:00 6,3 C 96 % 1015,7 hPa 0,0 l/m N 0,33 h 59 W/m 0,3 km/h (0 Bft)
16.07.2011 07:00 9,2 C 90 % 1015,7 hPa 0,0 l/m N-NW 1,00 h 210 W/m 2,5 km/h (1 Bft)
16.07.2011 08:00 12,8 C 77 % 1015,2 hPa 0,0 l/m N 1,00 h 382 W/m 1,9 km/h (1 Bft)
16.07.2011 09:00 15,9 C 65 % 1014,6 hPa 0,0 l/m O 1,00 h 556 W/m 3,2 km/h (1 Bft)
16.07.2011 10:00 18,0 C 60 % 1013,8 hPa 0,0 l/m S 0,92 h 660 W/m 5,7 km/h (1 Bft)
16.07.2011 11:00 19,6 C 56 % 1013,0 hPa 0,0 l/m SO 1,00 h 818 W/m 9,4 km/h (2 Bft)
16.07.2011 12:00 21,3 C 52 % 1012,3 hPa 0,0 l/m SO 1,00 h 905 W/m 13,6 km/h (3 Bft)
16.07.2011 13:00 22,1 C 49 % 1011,2 hPa 0,0 l/m S-SW 1,00 h 932 W/m 13,7 km/h (3 Bft)
16.07.2011 14:00 23,3 C 46 % 1010,2 hPa 0,0 l/m W 1,00 h 917 W/m 13,2 km/h (3 Bft)
16.07.2011 15:00 23,9 C 39 % 1009,3 hPa 0,0 l/m SW 1,00 h 851 W/m 18,5 km/h (3 Bft)
16.07.2011 16:00 24,1 C 39 % 1008,5 hPa 0,0 l/m SW 1,00 h 726 W/m 17,4 km/h (3 Bft)
16.07.2011 17:00 23,8 C 39 % 1007,9 hPa 0,0 l/m W-SW 1,00 h 572 W/m 18,1 km/h (3 Bft)
16.07.2011 18:00 23,3 C 41 % 1007,2 hPa 0,0 l/m W-SW 0,83 h 356 W/m 15,4 km/h (3 Bft)
16.07.2011 19:00 21,2 C 48 % 1006,7 hPa 0,0 l/m W-SW 0,08 h 97 W/m 6,4 km/h (2 Bft)
16.07.2011 20:00 19,2 C 62 % 1006,2 hPa 0,0 l/m N 0,00 h 35 W/m 1,1 km/h (0 Bft)
16.07.2011 21:00 17,3 C 73 % 1006,0 hPa 0,0 l/m N 0,00 h 6 W/m 0,9 km/h (0 Bft)
16.07.2011 22:00 16,6 C 72 % 1005,6 hPa 0,0 l/m N 0,00 h 0 W/m 2,1 km/h (1 Bft)
16.07.2011 23:00 16,3 C 74 % 1005,2 hPa 0,0 l/m N 0,00 h 0 W/m 3,3 km/h (1 Bft)
17.07.2011 00:00 16,3 C 77 % 1004,9 hPa 0,0 l/m N 0,00 h 0 W/m 2,9 km/h (1 Bft)
17.07.2011 01:00 16,0 C 79 % 1004,3 hPa 0,0 l/m SW 0,00 h 0 W/m 3,9 km/h (1 Bft)
17.07.2011 02:00 16,9 C 76 % 1003,7 hPa 0,0 l/m SW 0,00 h 0 W/m 11,0 km/h (2 Bft)
17.07.2011 03:00 17,0 C 77 % 1003,3 hPa 0,0 l/m SW 0,00 h 0 W/m 7,0 km/h (2 Bft)
17.07.2011 04:00 16,5 C 81 % 1002,6 hPa 0,0 l/m SW 0,00 h 0 W/m 3,1 km/h (1 Bft)
17.07.2011 05:00 16,4 C 81 % 1002,1 hPa 0,0 l/m SW 0,00 h 0 W/m 4,3 km/h (1 Bft)
17.07.2011 06:00 16,4 C 82 % 1001,5 hPa 0,0 l/m SW 0,00 h 25 W/m 3,3 km/h (1 Bft)
17.07.2011 07:00 17,6 C 78 % 1000,8 hPa 0,0 l/m SW 0,25 h 126 W/m 3,5 km/h (1 Bft)
17.07.2011 08:00 19,0 C 74 % 1000,4 hPa 0,0 l/m SW 0,00 h 128 W/m 4,4 km/h (1 Bft)
17.07.2011 09:00 20,6 C 68 % 1000,4 hPa 0,0 l/m W-NW 0,08 h 156 W/m 5,5 km/h (1 Bft)
17.07.2011 10:00 19,8 C 72 % 1001,4 hPa 0,0 l/m W-NW 0,00 h 189 W/m 18,9 km/h (3 Bft)
17.07.2011 11:00 17,4 C 79 % 1002,0 hPa 0,0 l/m N-NW 0,00 h 73 W/m 8,8 km/h (2 Bft)
17.07.2011 12:00 16,5 C 78 % 1002,7 hPa 0,0 l/m W-NW 0,00 h 32 W/m 12,4 km/h (3 Bft)
17.07.2011 13:00 15,1 C 86 % 1003,8 hPa 0,8 l/m W 0,00 h 34 W/m 9,1 km/h (2 Bft)
17.07.2011 14:00 14,6 C 94 % 1004,2 hPa 0,8 l/m SW 0,00 h 67 W/m 11,3 km/h (2 Bft)
17.07.2011 15:00 14,6 C 94 % 1004,5 hPa 0,2 l/m W 0,00 h 133 W/m 20,4 km/h (4 Bft)
17.07.2011 16:00 14,1 C 87 % 1004,9 hPa 0,0 l/m W-SW 0,00 h 95 W/m 20,4 km/h (4 Bft)
17.07.2011 17:00 13,2 C 91 % 1005,3 hPa 1,2 l/m W-SW 0,00 h 53 W/m 13,4 km/h (3 Bft)
17.07.2011 18:00 12,3 C 94 % 1005,6 hPa 2,0 l/m W-SW 0,00 h 29 W/m 17,3 km/h (3 Bft)
17.07.2011 19:00 11,7 C 96 % 1005,2 hPa 0,6 l/m SW 0,00 h 30 W/m 14,4 km/h (3 Bft)
17.07.2011 20:00 11,4 C 96 % 1005,3 hPa 0,0 l/m SW 0,08 h 43 W/m 12,9 km/h (3 Bft)
17.07.2011 21:00 11,0 C 96 % 1005,6 hPa 0,0 l/m SW 0,08 h 11 W/m 9,0 km/h (2 Bft)
17.07.2011 22:00 10,9 C 97 % 1005,9 hPa 0,0 l/m SW 0,00 h 0 W/m 11,8 km/h (2 Bft)
17.07.2011 23:00 10,9 C 98 % 1006,3 hPa 0,0 l/m S-SW 0,00 h 0 W/m 9,5 km/h (2 Bft)
Min-Datum _ 16.07.11 16.07.11 17.07.11 - - - - 11.07.11
_ Min-Zeit 05:40 15:55 09:10 - - - - 01:35
Minimum _ 5,7 C 35 % 1000,2 hPa - - - - 0,0 km/h (0 Bft)
Max-Datum _ 12.07.11 11.07.11 15.07.11 13.07.11 - 11.07.11 14.07.11 13.07.11
_ Max-Zeit 16:30 03:35 07:45 02:15 - 06:35 13:15 01:20
Maximum _ 30,7 C 100 % 1019,8 hPa 7,2 l/m - 0,08 h 1188 W/m 46,7 km/h
W-NW (6 Bft)
Durchschnitt _ 16,5 C 79 % 1012,0 hPa #51,4 l/m W-SW #41:50 h 286 W/m 8,5 km/h (2 Bft)